sensor_id;sensor_type;location;lat;lon;timestamp;temperature;humidity
16182;DHT22;8197;51.664;7.114;2024-02-26T00:02:11;5.60;89.90
16182;DHT22;8197;51.664;7.114;2024-02-26T00:07:14;5.60;89.90
16182;DHT22;8197;51.664;7.114;2024-02-26T00:12:18;5.70;89.90
16182;DHT22;8197;51.664;7.114;2024-02-26T00:17:21;5.70;89.90
16182;DHT22;8197;51.664;7.114;2024-02-26T00:22:24;5.70;89.90
16182;DHT22;8197;51.664;7.114;2024-02-26T00:27:28;5.80;90.50
16182;DHT22;8197;51.664;7.114;2024-02-26T00:32:31;5.70;89.80
16182;DHT22;8197;51.664;7.114;2024-02-26T00:37:34;5.70;89.90
16182;DHT22;8197;51.664;7.114;2024-02-26T00:42:38;5.70;89.60
16182;DHT22;8197;51.664;7.114;2024-02-26T00:47:47;5.80;89.80
16182;DHT22;8197;51.664;7.114;2024-02-26T00:52:50;5.80;89.80
16182;DHT22;8197;51.664;7.114;2024-02-26T00:57:55;5.80;89.70
16182;DHT22;8197;51.664;7.114;2024-02-26T01:02:58;5.80;90.10
16182;DHT22;8197;51.664;7.114;2024-02-26T01:08:01;5.80;90.50
16182;DHT22;8197;51.664;7.114;2024-02-26T01:13:06;5.80;90.10
16182;DHT22;8197;51.664;7.114;2024-02-26T01:18:09;5.80;90.00
16182;DHT22;8197;51.664;7.114;2024-02-26T01:23:12;5.70;90.50
16182;DHT22;8197;51.664;7.114;2024-02-26T01:28:17;5.70;90.80
16182;DHT22;8197;51.664;7.114;2024-02-26T01:33:20;5.70;90.90
16182;DHT22;8197;51.664;7.114;2024-02-26T01:38:23;5.80;91.20
16182;DHT22;8197;51.664;7.114;2024-02-26T01:43:28;5.80;91.20
16182;DHT22;8197;51.664;7.114;2024-02-26T01:48:31;5.70;90.50
16182;DHT22;8197;51.664;7.114;2024-02-26T01:53:37;5.70;91.20
16182;DHT22;8197;51.664;7.114;2024-02-26T01:58:41;5.80;91.50
16182;DHT22;8197;51.664;7.114;2024-02-26T02:03:45;5.80;91.00
16182;DHT22;8197;51.664;7.114;2024-02-26T02:08:48;5.80;90.60
16182;DHT22;8197;51.664;7.114;2024-02-26T02:13:58;5.80;90.30
16182;DHT22;8197;51.664;7.114;2024-02-26T02:19:02;5.80;90.10
16182;DHT22;8197;51.664;7.114;2024-02-26T02:24:06;5.80;90.00
16182;DHT22;8197;51.664;7.114;2024-02-26T02:29:14;5.90;91.40
16182;DHT22;8197;51.664;7.114;2024-02-26T02:34:18;5.90;90.90
16182;DHT22;8197;51.664;7.114;2024-02-26T02:39:22;5.80;89.80
16182;DHT22;8197;51.664;7.114;2024-02-26T02:44:25;5.90;89.30
16182;DHT22;8197;51.664;7.114;2024-02-26T02:49:28;5.90;88.50
16182;DHT22;8197;51.664;7.114;2024-02-26T02:54:33;6.00;89.70
16182;DHT22;8197;51.664;7.114;2024-02-26T02:59:37;5.90;88.80
16182;DHT22;8197;51.664;7.114;2024-02-26T03:04:41;5.90;88.70
16182;DHT22;8197;51.664;7.114;2024-02-26T03:09:45;6.00;88.40
16182;DHT22;8197;51.664;7.114;2024-02-26T03:14:48;6.00;88.40
16182;DHT22;8197;51.664;7.114;2024-02-26T03:19:51;5.90;88.20
16182;DHT22;8197;51.664;7.114;2024-02-26T03:24:57;5.90;88.50
16182;DHT22;8197;51.664;7.114;2024-02-26T03:30:00;5.90;88.30
16182;DHT22;8197;51.664;7.114;2024-02-26T03:35:04;5.90;88.80
16182;DHT22;8197;51.664;7.114;2024-02-26T03:40:12;5.90;88.50
16182;DHT22;8197;51.664;7.114;2024-02-26T03:45:16;5.90;88.50
16182;DHT22;8197;51.664;7.114;2024-02-26T03:50:19;5.90;88.10
16182;DHT22;8197;51.664;7.114;2024-02-26T03:55:23;5.90;89.60
16182;DHT22;8197;51.664;7.114;2024-02-26T04:00:27;5.90;89.40
16182;DHT22;8197;51.664;7.114;2024-02-26T04:05:31;5.90;89.50
16182;DHT22;8197;51.664;7.114;2024-02-26T04:10:36;5.90;90.70
16182;DHT22;8197;51.664;7.114;2024-02-26T04:15:40;5.90;90.30
16182;DHT22;8197;51.664;7.114;2024-02-26T04:20:43;5.90;90.20
16182;DHT22;8197;51.664;7.114;2024-02-26T04:25:47;5.90;90.60
16182;DHT22;8197;51.664;7.114;2024-02-26T04:30:50;5.80;90.20
16182;DHT22;8197;51.664;7.114;2024-02-26T04:35:53;5.80;91.40
16182;DHT22;8197;51.664;7.114;2024-02-26T04:40:57;5.80;92.30
16182;DHT22;8197;51.664;7.114;2024-02-26T04:46:00;5.70;94.00
16182;DHT22;8197;51.664;7.114;2024-02-26T04:51:03;5.60;94.30
16182;DHT22;8197;51.664;7.114;2024-02-26T04:56:08;5.60;95.50
16182;DHT22;8197;51.664;7.114;2024-02-26T05:01:11;5.60;97.20
16182;DHT22;8197;51.664;7.114;2024-02-26T05:06:14;5.60;98.20
16182;DHT22;8197;51.664;7.114;2024-02-26T05:11:18;5.50;98.50
16182;DHT22;8197;51.664;7.114;2024-02-26T05:16:21;5.50;99.50
16182;DHT22;8197;51.664;7.114;2024-02-26T05:21:26;5.40;100.00
16182;DHT22;8197;51.664;7.114;2024-02-26T05:26:30;5.40;100.00
16182;DHT22;8197;51.664;7.114;2024-02-26T05:31:33;5.40;100.00
16182;DHT22;8197;51.664;7.114;2024-02-26T05:36:36;5.40;100.00
16182;DHT22;8197;51.664;7.114;2024-02-26T05:41:40;5.40;100.00
16182;DHT22;8197;51.664;7.114;2024-02-26T05:46:44;5.40;100.00
16182;DHT22;8197;51.664;7.114;2024-02-26T05:51:47;5.40;100.00
16182;DHT22;8197;51.664;7.114;2024-02-26T05:56:51;5.30;100.00
16182;DHT22;8197;51.664;7.114;2024-02-26T06:01:54;5.30;100.00
16182;DHT22;8197;51.664;7.114;2024-02-26T06:06:57;5.30;100.00
16182;DHT22;8197;51.664;7.114;2024-02-26T06:12:02;5.30;100.00
16182;DHT22;8197;51.664;7.114;2024-02-26T06:17:05;5.40;100.00
16182;DHT22;8197;51.664;7.114;2024-02-26T06:22:08;5.40;100.00
16182;DHT22;8197;51.664;7.114;2024-02-26T06:27:13;5.40;100.00
16182;DHT22;8197;51.664;7.114;2024-02-26T06:32:16;5.30;100.00
16182;DHT22;8197;51.664;7.114;2024-02-26T06:37:18;5.30;100.00
16182;DHT22;8197;51.664;7.114;2024-02-26T06:42:23;5.30;100.00
16182;DHT22;8197;51.664;7.114;2024-02-26T06:47:25;5.30;100.00
16182;DHT22;8197;51.664;7.114;2024-02-26T06:52:28;5.30;100.00
16182;DHT22;8197;51.664;7.114;2024-02-26T06:57:33;5.20;100.00
16182;DHT22;8197;51.664;7.114;2024-02-26T07:02:36;5.20;100.00
16182;DHT22;8197;51.664;7.114;2024-02-26T07:07:41;5.10;100.00
16182;DHT22;8197;51.664;7.114;2024-02-26T07:12:45;5.20;100.00
16182;DHT22;8197;51.664;7.114;2024-02-26T07:17:48;5.20;100.00
16182;DHT22;8197;51.664;7.114;2024-02-26T07:22:51;5.20;100.00
16182;DHT22;8197;51.664;7.114;2024-02-26T07:27:55;5.20;100.00
16182;DHT22;8197;51.664;7.114;2024-02-26T07:32:58;5.30;100.00
16182;DHT22;8197;51.664;7.114;2024-02-26T07:38:01;5.30;100.00
16182;DHT22;8197;51.664;7.114;2024-02-26T07:43:05;5.40;100.00
16182;DHT22;8197;51.664;7.114;2024-02-26T07:48:08;5.40;100.00
16182;DHT22;8197;51.664;7.114;2024-02-26T07:53:11;5.50;100.00
16182;DHT22;8197;51.664;7.114;2024-02-26T07:58:15;5.50;100.00
16182;DHT22;8197;51.664;7.114;2024-02-26T08:03:19;5.50;100.00
16182;DHT22;8197;51.664;7.114;2024-02-26T08:08:22;5.60;100.00
16182;DHT22;8197;51.664;7.114;2024-02-26T08:13:26;5.60;100.00
16182;DHT22;8197;51.664;7.114;2024-02-26T08:18:29;5.60;100.00
16182;DHT22;8197;51.664;7.114;2024-02-26T08:23:32;5.70;100.00
16182;DHT22;8197;51.664;7.114;2024-02-26T08:28:36;5.70;100.00
16182;DHT22;8197;51.664;7.114;2024-02-26T08:33:39;5.80;100.00
16182;DHT22;8197;51.664;7.114;2024-02-26T08:38:42;5.80;100.00
16182;DHT22;8197;51.664;7.114;2024-02-26T08:43:47;5.80;99.90
16182;DHT22;8197;51.664;7.114;2024-02-26T08:48:49;5.90;99.90
16182;DHT22;8197;51.664;7.114;2024-02-26T08:53:52;5.90;99.70
16182;DHT22;8197;51.664;7.114;2024-02-26T08:59:00;6.00;99.80
16182;DHT22;8197;51.664;7.114;2024-02-26T09:04:05;6.00;98.80
16182;DHT22;8197;51.664;7.114;2024-02-26T09:09:08;6.10;98.90
16182;DHT22;8197;51.664;7.114;2024-02-26T09:14:13;6.10;98.90
16182;DHT22;8197;51.664;7.114;2024-02-26T09:19:16;6.10;99.60
16182;DHT22;8197;51.664;7.114;2024-02-26T09:24:19;6.20;100.00
16182;DHT22;8197;51.664;7.114;2024-02-26T09:29:23;6.10;100.00
16182;DHT22;8197;51.664;7.114;2024-02-26T09:34:28;6.20;100.00
16182;DHT22;8197;51.664;7.114;2024-02-26T09:39:31;6.20;100.00
16182;DHT22;8197;51.664;7.114;2024-02-26T09:44:36;6.20;100.00
16182;DHT22;8197;51.664;7.114;2024-02-26T09:49:42;6.30;100.00
16182;DHT22;8197;51.664;7.114;2024-02-26T09:54:47;6.30;100.00
16182;DHT22;8197;51.664;7.114;2024-02-26T09:59:53;6.40;99.60
16182;DHT22;8197;51.664;7.114;2024-02-26T10:04:57;6.50;98.50
16182;DHT22;8197;51.664;7.114;2024-02-26T10:10:04;6.60;95.90
16182;DHT22;8197;51.664;7.114;2024-02-26T10:15:09;6.60;95.90
16182;DHT22;8197;51.664;7.114;2024-02-26T10:20:13;6.70;93.80
16182;DHT22;8197;51.664;7.114;2024-02-26T10:25:18;6.80;91.90
16182;DHT22;8197;51.664;7.114;2024-02-26T10:30:22;6.80;90.60
16182;DHT22;8197;51.664;7.114;2024-02-26T10:35:27;6.80;91.30
16182;DHT22;8197;51.664;7.114;2024-02-26T10:40:33;6.90;91.40
16182;DHT22;8197;51.664;7.114;2024-02-26T10:45:38;6.90;90.10
16182;DHT22;8197;51.664;7.114;2024-02-26T10:50:44;7.00;89.70
16182;DHT22;8197;51.664;7.114;2024-02-26T10:55:57;7.00;90.60
16182;DHT22;8197;51.664;7.114;2024-02-26T11:01:03;7.00;92.40
16182;DHT22;8197;51.664;7.114;2024-02-26T11:06:07;7.00;94.10
16182;DHT22;8197;51.664;7.114;2024-02-26T11:11:12;7.00;95.40
16182;DHT22;8197;51.664;7.114;2024-02-26T11:16:19;7.00;96.30
16182;DHT22;8197;51.664;7.114;2024-02-26T11:21:23;6.90;93.70
16182;DHT22;8197;51.664;7.114;2024-02-26T11:26:31;6.90;94.30
16182;DHT22;8197;51.664;7.114;2024-02-26T11:31:38;6.90;92.50
16182;DHT22;8197;51.664;7.114;2024-02-26T11:36:44;6.90;93.70
16182;DHT22;8197;51.664;7.114;2024-02-26T11:41:47;7.00;93.40
16182;DHT22;8197;51.664;7.114;2024-02-26T11:46:51;6.90;92.90
16182;DHT22;8197;51.664;7.114;2024-02-26T11:51:55;6.90;94.90
16182;DHT22;8197;51.664;7.114;2024-02-26T11:56:59;6.90;94.90
16182;DHT22;8197;51.664;7.114;2024-02-26T12:02:04;6.90;95.30
16182;DHT22;8197;51.664;7.114;2024-02-26T12:07:06;6.90;95.40
16182;DHT22;8197;51.664;7.114;2024-02-26T12:12:10;6.80;95.50
16182;DHT22;8197;51.664;7.114;2024-02-26T12:17:24;6.80;95.00
16182;DHT22;8197;51.664;7.114;2024-02-26T12:22:28;6.80;96.30
16182;DHT22;8197;51.664;7.114;2024-02-26T12:27:31;6.80;99.90
16182;DHT22;8197;51.664;7.114;2024-02-26T12:32:36;6.90;97.00
16182;DHT22;8197;51.664;7.114;2024-02-26T12:37:39;6.90;98.50
16182;DHT22;8197;51.664;7.114;2024-02-26T12:42:45;6.90;98.70
16182;DHT22;8197;51.664;7.114;2024-02-26T12:47:50;6.90;98.70
16182;DHT22;8197;51.664;7.114;2024-02-26T12:52:53;6.90;100.00
16182;DHT22;8197;51.664;7.114;2024-02-26T12:57:56;7.00;98.70
16182;DHT22;8197;51.664;7.114;2024-02-26T13:03:01;7.00;99.90
16182;DHT22;8197;51.664;7.114;2024-02-26T13:08:05;6.90;100.00
16182;DHT22;8197;51.664;7.114;2024-02-26T13:13:10;6.90;100.00
16182;DHT22;8197;51.664;7.114;2024-02-26T13:18:15;7.00;100.00
16182;DHT22;8197;51.664;7.114;2024-02-26T13:23:18;7.00;100.00
16182;DHT22;8197;51.664;7.114;2024-02-26T13:28:22;6.90;100.00
16182;DHT22;8197;51.664;7.114;2024-02-26T13:33:33;6.90;100.00
16182;DHT22;8197;51.664;7.114;2024-02-26T13:38:37;6.90;100.00
16182;DHT22;8197;51.664;7.114;2024-02-26T13:43:44;6.90;100.00
16182;DHT22;8197;51.664;7.114;2024-02-26T13:48:49;6.90;100.00
16182;DHT22;8197;51.664;7.114;2024-02-26T13:53:52;6.90;100.00
16182;DHT22;8197;51.664;7.114;2024-02-26T13:58:55;6.90;100.00
16182;DHT22;8197;51.664;7.114;2024-02-26T14:03:59;6.90;98.40
16182;DHT22;8197;51.664;7.114;2024-02-26T14:09:04;7.00;99.60
16182;DHT22;8197;51.664;7.114;2024-02-26T14:14:07;7.00;98.70
16182;DHT22;8197;51.664;7.114;2024-02-26T14:19:12;7.00;97.20
16182;DHT22;8197;51.664;7.114;2024-02-26T14:24:17;7.00;95.80
16182;DHT22;8197;51.664;7.114;2024-02-26T14:29:20;7.00;96.40
16182;DHT22;8197;51.664;7.114;2024-02-26T14:34:27;7.00;96.00
16182;DHT22;8197;51.664;7.114;2024-02-26T14:39:30;7.00;95.30
16182;DHT22;8197;51.664;7.114;2024-02-26T14:44:33;7.10;93.90
16182;DHT22;8197;51.664;7.114;2024-02-26T14:49:40;7.10;94.10
16182;DHT22;8197;51.664;7.114;2024-02-26T14:54:44;7.10;93.60
16182;DHT22;8197;51.664;7.114;2024-02-26T14:59:47;7.10;94.30
16182;DHT22;8197;51.664;7.114;2024-02-26T15:04:53;7.10;93.80
16182;DHT22;8197;51.664;7.114;2024-02-26T15:09:56;7.10;94.30
16182;DHT22;8197;51.664;7.114;2024-02-26T15:15:01;7.20;94.00
16182;DHT22;8197;51.664;7.114;2024-02-26T15:20:08;7.20;94.40
16182;DHT22;8197;51.664;7.114;2024-02-26T15:25:13;7.20;94.80
16182;DHT22;8197;51.664;7.114;2024-02-26T15:30:19;7.20;95.60
16182;DHT22;8197;51.664;7.114;2024-02-26T15:35:23;7.20;95.20
16182;DHT22;8197;51.664;7.114;2024-02-26T15:40:26;7.20;95.70
16182;DHT22;8197;51.664;7.114;2024-02-26T15:45:29;7.20;94.50
16182;DHT22;8197;51.664;7.114;2024-02-26T15:50:35;7.30;94.70
16182;DHT22;8197;51.664;7.114;2024-02-26T15:55:42;7.30;94.10
16182;DHT22;8197;51.664;7.114;2024-02-26T16:00:47;7.30;93.50
16182;DHT22;8197;51.664;7.114;2024-02-26T16:05:52;7.30;94.00
16182;DHT22;8197;51.664;7.114;2024-02-26T16:10:55;7.30;94.80
16182;DHT22;8197;51.664;7.114;2024-02-26T16:16:02;7.30;94.00
16182;DHT22;8197;51.664;7.114;2024-02-26T16:21:11;7.30;94.10
16182;DHT22;8197;51.664;7.114;2024-02-26T16:26:14;7.30;94.40
16182;DHT22;8197;51.664;7.114;2024-02-26T16:31:17;7.30;93.90
16182;DHT22;8197;51.664;7.114;2024-02-26T16:36:24;7.20;94.50
16182;DHT22;8197;51.664;7.114;2024-02-26T16:41:27;7.20;94.90
16182;DHT22;8197;51.664;7.114;2024-02-26T16:46:30;7.20;95.80
16182;DHT22;8197;51.664;7.114;2024-02-26T16:51:36;7.20;95.60
16182;DHT22;8197;51.664;7.114;2024-02-26T16:56:39;7.10;95.80
16182;DHT22;8197;51.664;7.114;2024-02-26T17:01:44;7.20;95.80
16182;DHT22;8197;51.664;7.114;2024-02-26T17:06:49;7.20;95.70
16182;DHT22;8197;51.664;7.114;2024-02-26T17:11:56;7.20;95.40
16182;DHT22;8197;51.664;7.114;2024-02-26T17:16:59;7.20;95.20
16182;DHT22;8197;51.664;7.114;2024-02-26T17:22:04;7.10;95.80
16182;DHT22;8197;51.664;7.114;2024-02-26T17:27:08;7.10;96.40
16182;DHT22;8197;51.664;7.114;2024-02-26T17:32:11;7.10;95.80
16182;DHT22;8197;51.664;7.114;2024-02-26T17:37:18;7.10;96.20
16182;DHT22;8197;51.664;7.114;2024-02-26T17:42:23;7.10;96.50
16182;DHT22;8197;51.664;7.114;2024-02-26T17:47:26;7.10;97.50
16182;DHT22;8197;51.664;7.114;2024-02-26T17:52:30;7.10;97.30
16182;DHT22;8197;51.664;7.114;2024-02-26T17:57:38;7.10;98.10
16182;DHT22;8197;51.664;7.114;2024-02-26T18:02:41;7.10;98.40
16182;DHT22;8197;51.664;7.114;2024-02-26T18:07:47;7.10;98.70
16182;DHT22;8197;51.664;7.114;2024-02-26T18:12:53;7.10;98.90
16182;DHT22;8197;51.664;7.114;2024-02-26T18:18:00;7.10;99.10
16182;DHT22;8197;51.664;7.114;2024-02-26T18:23:04;7.20;98.50
16182;DHT22;8197;51.664;7.114;2024-02-26T18:28:08;7.10;99.10
16182;DHT22;8197;51.664;7.114;2024-02-26T18:33:11;7.10;99.40
16182;DHT22;8197;51.664;7.114;2024-02-26T18:38:19;7.00;99.90
16182;DHT22;8197;51.664;7.114;2024-02-26T18:43:22;7.00;99.60
16182;DHT22;8197;51.664;7.114;2024-02-26T18:48:25;7.00;99.80
16182;DHT22;8197;51.664;7.114;2024-02-26T18:53:30;7.00;99.90
16182;DHT22;8197;51.664;7.114;2024-02-26T18:58:32;7.00;99.90
16182;DHT22;8197;51.664;7.114;2024-02-26T19:03:36;7.00;99.80
16182;DHT22;8197;51.664;7.114;2024-02-26T19:08:40;6.90;100.00
16182;DHT22;8197;51.664;7.114;2024-02-26T19:13:43;6.90;100.00
16182;DHT22;8197;51.664;7.114;2024-02-26T19:18:46;6.90;100.00
16182;DHT22;8197;51.664;7.114;2024-02-26T19:23:52;6.90;100.00
16182;DHT22;8197;51.664;7.114;2024-02-26T19:28:57;6.90;100.00
16182;DHT22;8197;51.664;7.114;2024-02-26T19:34:00;6.80;100.00
16182;DHT22;8197;51.664;7.114;2024-02-26T19:39:05;6.80;100.00
16182;DHT22;8197;51.664;7.114;2024-02-26T19:44:11;6.70;100.00
16182;DHT22;8197;51.664;7.114;2024-02-26T19:49:17;6.70;100.00
16182;DHT22;8197;51.664;7.114;2024-02-26T19:54:23;6.60;100.00
16182;DHT22;8197;51.664;7.114;2024-02-26T19:59:26;6.60;100.00
16182;DHT22;8197;51.664;7.114;2024-02-26T20:04:34;6.60;100.00
16182;DHT22;8197;51.664;7.114;2024-02-26T20:09:39;6.50;100.00
16182;DHT22;8197;51.664;7.114;2024-02-26T20:14:42;6.50;100.00
16182;DHT22;8197;51.664;7.114;2024-02-26T20:19:48;6.50;100.00
16182;DHT22;8197;51.664;7.114;2024-02-26T20:24:53;6.40;100.00
16182;DHT22;8197;51.664;7.114;2024-02-26T20:29:56;6.40;100.00
16182;DHT22;8197;51.664;7.114;2024-02-26T20:35:00;6.40;100.00
16182;DHT22;8197;51.664;7.114;2024-02-26T20:40:07;6.40;100.00
16182;DHT22;8197;51.664;7.114;2024-02-26T20:45:10;6.40;100.00
16182;DHT22;8197;51.664;7.114;2024-02-26T20:50:13;6.30;100.00
16182;DHT22;8197;51.664;7.114;2024-02-26T20:55:17;6.30;100.00
16182;DHT22;8197;51.664;7.114;2024-02-26T21:00:22;6.20;100.00
16182;DHT22;8197;51.664;7.114;2024-02-26T21:05:25;6.20;100.00
16182;DHT22;8197;51.664;7.114;2024-02-26T21:10:30;6.20;100.00
16182;DHT22;8197;51.664;7.114;2024-02-26T21:15:33;6.20;100.00
16182;DHT22;8197;51.664;7.114;2024-02-26T21:20:54;6.20;100.00
16182;DHT22;8197;51.664;7.114;2024-02-26T21:26:00;6.20;100.00
16182;DHT22;8197;51.664;7.114;2024-02-26T21:31:03;6.20;100.00
16182;DHT22;8197;51.664;7.114;2024-02-26T21:36:07;6.20;100.00
16182;DHT22;8197;51.664;7.114;2024-02-26T21:41:11;6.20;100.00
16182;DHT22;8197;51.664;7.114;2024-02-26T21:46:16;6.20;100.00
16182;DHT22;8197;51.664;7.114;2024-02-26T21:51:19;6.10;100.00
16182;DHT22;8197;51.664;7.114;2024-02-26T21:56:23;6.10;100.00
16182;DHT22;8197;51.664;7.114;2024-02-26T22:01:26;6.10;100.00
16182;DHT22;8197;51.664;7.114;2024-02-26T22:06:30;6.10;100.00
16182;DHT22;8197;51.664;7.114;2024-02-26T22:11:34;6.00;100.00
16182;DHT22;8197;51.664;7.114;2024-02-26T22:16:37;6.10;100.00
16182;DHT22;8197;51.664;7.114;2024-02-26T22:21:41;6.10;100.00
16182;DHT22;8197;51.664;7.114;2024-02-26T22:26:46;6.10;100.00
16182;DHT22;8197;51.664;7.114;2024-02-26T22:31:49;6.10;100.00
16182;DHT22;8197;51.664;7.114;2024-02-26T22:36:55;6.10;100.00
16182;DHT22;8197;51.664;7.114;2024-02-26T22:42:00;6.00;100.00
16182;DHT22;8197;51.664;7.114;2024-02-26T22:47:04;6.00;100.00
16182;DHT22;8197;51.664;7.114;2024-02-26T22:52:07;6.00;100.00
16182;DHT22;8197;51.664;7.114;2024-02-26T22:57:12;6.00;100.00
16182;DHT22;8197;51.664;7.114;2024-02-26T23:02:15;6.00;100.00
16182;DHT22;8197;51.664;7.114;2024-02-26T23:07:18;6.00;100.00
16182;DHT22;8197;51.664;7.114;2024-02-26T23:12:25;6.00;100.00
16182;DHT22;8197;51.664;7.114;2024-02-26T23:17:28;6.00;100.00
16182;DHT22;8197;51.664;7.114;2024-02-26T23:22:31;6.00;100.00
16182;DHT22;8197;51.664;7.114;2024-02-26T23:27:35;6.00;100.00
16182;DHT22;8197;51.664;7.114;2024-02-26T23:32:38;6.00;100.00
16182;DHT22;8197;51.664;7.114;2024-02-26T23:37:41;6.00;100.00
16182;DHT22;8197;51.664;7.114;2024-02-26T23:42:46;6.00;100.00
16182;DHT22;8197;51.664;7.114;2024-02-26T23:47:49;6.00;100.00
16182;DHT22;8197;51.664;7.114;2024-02-26T23:52:52;6.00;100.00
16182;DHT22;8197;51.664;7.114;2024-02-26T23:57:58;6.00;100.00
